createdAt,value
2023-02-11T00:01:32.505Z,19.48
2023-02-11T00:06:32.167Z,19.20
2023-02-11T00:09:01.920Z,19.60
2023-02-11T00:11:30.726Z,18.88
2023-02-11T00:14:01.318Z,20.73
2023-02-11T00:16:30.826Z,18.70
2023-02-11T00:19:03.499Z,19.27
2023-02-11T00:21:31.899Z,16.40
2023-02-11T00:24:02.308Z,20.33
2023-02-11T00:26:33.360Z,22.83
2023-02-11T00:29:02.235Z,25.02
2023-02-11T00:31:33.469Z,25.55
2023-02-11T00:34:02.008Z,25.98
2023-02-11T00:36:30.614Z,23.08
2023-02-11T00:38:59.837Z,24.25
2023-02-11T00:41:29.618Z,19.98
2023-02-11T00:44:01.799Z,21.90
2023-02-11T00:46:33.060Z,24.95
2023-02-11T00:49:01.297Z,22.65
2023-02-11T00:51:29.584Z,23.38
2023-02-11T00:53:57.863Z,19.20
2023-02-11T00:56:26.481Z,21.27
2023-02-11T00:58:54.753Z,19.95
2023-02-11T01:01:23.272Z,29.30
2023-02-11T01:03:54.640Z,40.47
2023-02-11T01:08:52.723Z,50.20
2023-02-11T01:11:22.084Z,53.90
2023-02-11T01:13:51.029Z,54.50
2023-02-11T01:16:20.346Z,56.50
2023-02-11T01:18:49.081Z,67.20
2023-02-11T01:21:19.626Z,69.22
2023-02-11T01:23:47.972Z,66.50
2023-02-11T01:26:16.438Z,66.47
2023-02-11T01:28:44.888Z,67.97
2023-02-11T01:31:13.263Z,71.75
2023-02-11T01:33:41.804Z,66.88
2023-02-11T01:36:12.409Z,62.55
2023-02-11T01:38:41.327Z,63.20
2023-02-11T01:41:12.049Z,61.17
2023-02-11T01:43:46.425Z,60.47
2023-02-11T01:46:50.460Z,55.00
2023-02-11T01:49:30.593Z,52.60
2023-02-11T01:52:07.970Z,48.20
2023-02-11T01:55:03.049Z,48.65
2023-02-11T01:57:35.470Z,43.42
2023-02-11T02:00:10.455Z,43.05
2023-02-11T02:03:05.723Z,41.47
2023-02-11T02:05:56.829Z,41.83
2023-02-11T02:08:43.595Z,42.20
2023-02-11T02:11:12.312Z,39.30
2023-02-11T02:13:40.576Z,32.03
2023-02-11T02:16:15.309Z,27.33
2023-02-11T02:19:10.413Z,28.08
2023-02-11T02:22:14.342Z,28.05
2023-02-11T02:25:01.228Z,17.20
2023-02-11T02:27:42.185Z,17.58
2023-02-11T02:30:35.206Z,23.20
2023-02-11T02:33:22.412Z,29.10
2023-02-11T02:36:17.508Z,48.97
2023-02-11T02:39:08.982Z,56.53
2023-02-11T02:41:39.538Z,58.97
2023-02-11T02:44:09.304Z,59.70
2023-02-11T02:46:56.381Z,58.47
2023-02-11T02:49:24.603Z,53.20
2023-02-11T02:52:16.074Z,47.03
2023-02-11T02:54:49.931Z,42.08
2023-02-11T02:57:38.367Z,43.65
2023-02-11T03:00:24.578Z,41.35
2023-02-11T03:03:11.450Z,39.85
2023-02-11T03:05:49.025Z,28.48
2023-02-11T03:08:38.887Z,24.73
2023-02-11T03:11:10.033Z,24.10
2023-02-11T03:13:41.485Z,19.75
2023-02-11T03:16:15.281Z,15.75
2023-02-11T03:18:49.514Z,13.35
2023-02-11T03:21:20.253Z,12.35
2023-02-11T03:24:01.245Z,12.85
2023-02-11T03:26:38.084Z,14.10
2023-02-11T03:29:37.574Z,12.27
2023-02-11T03:32:25.471Z,18.05
2023-02-11T03:35:01.239Z,18.58
2023-02-11T03:37:56.240Z,17.45
2023-02-11T03:40:32.640Z,14.27
2023-02-11T03:43:11.939Z,13.73
2023-02-11T03:45:40.967Z,13.55
2023-02-11T03:48:44.237Z,11.82
2023-02-11T03:51:14.969Z,10.57
2023-02-11T03:53:46.620Z,10.45
2023-02-11T03:56:21.567Z,11.15
2023-02-11T03:58:50.156Z,10.57
2023-02-11T04:01:19.002Z,10.52
2023-02-11T04:03:47.304Z,10.35
2023-02-11T04:06:15.511Z,10.55
2023-02-11T04:08:43.694Z,10.07
2023-02-11T04:11:11.878Z,10.95
2023-02-11T04:13:40.088Z,11.75
2023-02-11T04:16:08.407Z,11.38
2023-02-11T04:18:36.639Z,11.65
2023-02-11T04:21:04.885Z,12.05
2023-02-11T04:23:33.112Z,11.60
2023-02-11T04:26:01.376Z,11.13
2023-02-11T04:28:29.992Z,11.02
2023-02-11T04:30:58.782Z,11.85
2023-02-11T04:33:27.115Z,12.05
2023-02-11T04:35:55.283Z,11.95
2023-02-11T04:38:26.384Z,12.48
2023-02-11T04:40:54.547Z,11.77
2023-02-11T04:43:22.789Z,11.93
2023-02-11T04:45:51.342Z,11.95
2023-02-11T04:48:19.804Z,11.98
2023-02-11T04:50:47.978Z,11.25
2023-02-11T04:53:16.147Z,12.25
2023-02-11T04:55:44.298Z,14.90
2023-02-11T04:58:12.493Z,15.18
2023-02-11T05:00:40.770Z,13.15
2023-02-11T05:03:08.986Z,13.43
2023-02-11T05:05:43.392Z,13.02
2023-02-11T05:08:12.200Z,13.77
2023-02-11T05:10:40.419Z,13.55
2023-02-11T05:13:08.542Z,13.68
2023-02-11T05:15:36.772Z,13.15
2023-02-11T05:18:05.197Z,13.95
2023-02-11T05:20:33.407Z,14.93
2023-02-11T05:23:01.565Z,17.20
2023-02-11T05:25:29.829Z,17.67
2023-02-11T05:27:58.038Z,17.50
2023-02-11T05:30:26.468Z,19.48
2023-02-11T05:32:54.648Z,40.70
2023-02-11T05:35:22.871Z,34.35
2023-02-11T05:37:51.342Z,27.67
2023-02-11T05:40:19.797Z,22.27
2023-02-11T05:42:48.019Z,24.20
2023-02-11T05:45:16.201Z,24.50
2023-02-11T05:47:44.412Z,22.77
2023-02-11T05:50:14.364Z,23.52
2023-02-11T05:52:42.526Z,25.02
2023-02-11T05:55:10.876Z,24.10
2023-02-11T05:57:39.053Z,22.95
2023-02-11T06:00:08.250Z,24.83
2023-02-11T06:02:42.369Z,23.80
2023-02-11T06:05:10.785Z,24.20
2023-02-11T06:07:38.929Z,22.55
2023-02-11T06:10:07.916Z,15.07
2023-02-11T06:12:37.579Z,19.42
2023-02-11T06:15:07.545Z,22.50
2023-02-11T06:17:36.669Z,19.77
2023-02-11T06:20:08.686Z,16.33
2023-02-11T06:22:36.928Z,28.00
2023-02-11T06:25:05.493Z,22.30
2023-02-11T06:27:36.729Z,21.50
2023-02-11T06:30:06.518Z,20.80
2023-02-11T06:32:43.719Z,21.00
2023-02-11T06:35:14.042Z,21.10
2023-02-11T06:37:43.240Z,19.75
2023-02-11T06:40:12.323Z,21.08
2023-02-11T06:42:40.660Z,20.90
2023-02-11T06:45:10.895Z,23.02
2023-02-11T06:47:40.272Z,25.63
2023-02-11T06:50:12.010Z,25.52
2023-02-11T06:52:40.375Z,27.23
2023-02-11T06:55:08.714Z,28.38
2023-02-11T06:57:36.929Z,30.08
2023-02-11T07:00:08.463Z,32.03
2023-02-11T07:02:37.084Z,33.72
2023-02-11T07:05:07.499Z,33.00
2023-02-11T07:07:37.077Z,33.10
2023-02-11T07:10:05.957Z,33.45
2023-02-11T07:12:34.068Z,32.08
2023-02-11T07:15:02.753Z,33.13
2023-02-11T07:17:31.768Z,33.15
2023-02-11T07:20:02.911Z,29.00
2023-02-11T07:22:31.170Z,26.92
2023-02-11T07:24:59.337Z,28.42
2023-02-11T07:27:27.572Z,27.00
2023-02-11T07:29:55.737Z,29.08
2023-02-11T07:32:23.922Z,24.15
2023-02-11T07:34:52.249Z,25.42
2023-02-11T07:37:20.508Z,21.35
2023-02-11T07:39:49.113Z,24.17
2023-02-11T07:42:17.414Z,26.13
2023-02-11T07:44:50.282Z,25.95
2023-02-11T07:47:19.024Z,24.83
2023-02-11T07:49:47.711Z,27.90
2023-02-11T07:52:15.872Z,27.33
2023-02-11T07:54:44.275Z,30.92
2023-02-11T07:57:15.108Z,28.15
2023-02-11T07:59:43.304Z,29.90
2023-02-11T08:02:11.714Z,30.00
2023-02-11T08:04:40.226Z,29.17
2023-02-11T08:07:08.499Z,26.88
2023-02-11T08:09:36.854Z,23.08
2023-02-11T08:12:05.221Z,22.55
2023-02-11T08:14:33.382Z,24.20
2023-02-11T08:17:01.660Z,23.70
2023-02-11T08:19:29.969Z,21.83
2023-02-11T08:22:00.627Z,20.17
2023-02-11T08:24:28.951Z,19.48
2023-02-11T08:26:57.502Z,22.05
2023-02-11T08:29:25.960Z,24.73
2023-02-11T08:31:54.183Z,26.33
2023-02-11T08:34:22.477Z,32.60
2023-02-11T08:36:50.729Z,34.35
2023-02-11T08:39:23.441Z,31.17
2023-02-11T08:41:56.868Z,30.50
2023-02-11T08:44:25.706Z,29.98
2023-02-11T08:46:54.091Z,32.30
2023-02-11T08:49:22.707Z,35.05
2023-02-11T08:51:51.518Z,35.00
2023-02-11T08:54:22.668Z,35.25
2023-02-11T08:56:52.317Z,37.42
2023-02-11T08:59:20.554Z,37.33
2023-02-11T09:01:48.977Z,38.80
2023-02-11T09:04:17.395Z,42.25
2023-02-11T09:06:46.003Z,40.47
2023-02-11T09:09:15.492Z,42.40
2023-02-11T09:11:44.969Z,43.33
2023-02-11T09:14:19.246Z,44.53
2023-02-11T09:16:47.642Z,44.67
2023-02-11T09:19:16.014Z,40.10
2023-02-11T09:21:44.477Z,30.38
2023-02-11T09:24:12.797Z,22.95
2023-02-11T09:26:43.404Z,20.90
2023-02-11T09:29:11.753Z,17.25
2023-02-11T09:31:40.058Z,16.63
2023-02-11T09:34:08.872Z,17.83
2023-02-11T09:36:39.350Z,18.38
2023-02-11T09:39:13.996Z,18.27
2023-02-11T09:42:06.954Z,17.17
2023-02-11T09:44:38.486Z,18.07
2023-02-11T09:47:34.278Z,18.85
2023-02-11T09:50:12.718Z,18.73
2023-02-11T09:52:57.935Z,18.20
2023-02-11T09:55:40.566Z,19.20
2023-02-11T09:58:14.464Z,19.23
2023-02-11T10:00:54.895Z,20.33
2023-02-11T10:03:43.653Z,20.77
2023-02-11T10:06:11.841Z,18.08
2023-02-11T10:08:52.058Z,18.48
2023-02-11T10:11:36.738Z,19.65
2023-02-11T10:14:10.495Z,18.65
2023-02-11T10:16:58.265Z,19.65
2023-02-11T10:19:29.586Z,17.60
2023-02-11T10:22:17.075Z,17.40
2023-02-11T10:24:54.009Z,18.55
2023-02-11T10:27:29.148Z,18.98
2023-02-11T10:30:20.822Z,18.05
2023-02-11T10:33:16.678Z,19.48
2023-02-11T10:35:45.758Z,18.15
2023-02-11T10:38:14.192Z,18.63
2023-02-11T10:40:42.397Z,19.42
2023-02-11T10:43:19.992Z,19.98
2023-02-11T10:45:53.601Z,20.05
2023-02-11T11:13:41.804Z,25.13
2023-02-11T11:16:12.865Z,24.30
2023-02-11T11:18:51.104Z,22.25
2023-02-11T11:21:19.198Z,22.42
2023-02-11T11:23:51.358Z,23.50
2023-02-11T11:26:19.433Z,22.63
2023-02-11T11:28:50.507Z,22.73
2023-02-11T11:31:19.979Z,22.83
2023-02-11T11:33:48.459Z,20.23
2023-02-11T11:36:23.496Z,20.48
2023-02-11T11:38:53.904Z,18.40
2023-02-11T11:41:24.283Z,18.95
2023-02-11T11:43:58.882Z,20.20
2023-02-11T11:46:35.109Z,20.45
2023-02-11T11:49:14.128Z,21.70
2023-02-11T11:51:42.990Z,22.10
2023-02-11T11:54:16.190Z,23.80
2023-02-11T11:57:05.754Z,21.80
2023-02-11T11:59:34.233Z,23.60
2023-02-11T12:02:08.660Z,23.48
2023-02-11T12:04:39.439Z,24.30
2023-02-11T12:07:25.981Z,25.58
2023-02-11T12:10:00.125Z,24.17
2023-02-11T12:12:38.376Z,23.70
2023-02-11T12:15:24.754Z,22.60
2023-02-11T12:18:07.786Z,25.33
2023-02-11T12:20:44.422Z,25.95
2023-02-11T12:23:12.216Z,27.58
2023-02-11T12:25:58.860Z,25.23
2023-02-11T12:28:30.570Z,25.42
2023-02-11T12:31:17.309Z,26.13
2023-02-11T12:34:11.702Z,25.58
2023-02-11T12:36:48.676Z,26.92
2023-02-11T12:39:39.317Z,26.17
2023-02-11T12:42:34.985Z,26.50
2023-02-11T12:45:02.799Z,25.73
2023-02-11T12:47:30.616Z,27.40
2023-02-11T12:50:17.282Z,28.70
2023-02-11T12:52:51.085Z,30.30
2023-02-11T12:55:23.227Z,26.02
2023-02-11T12:57:52.171Z,27.15
2023-02-11T13:00:25.000Z,27.95
2023-02-11T13:03:02.083Z,26.75
2023-02-11T13:05:29.862Z,26.63
2023-02-11T13:08:04.061Z,26.58
2023-02-11T13:10:36.952Z,25.75
2023-02-11T13:13:17.029Z,27.35
2023-02-11T13:15:49.605Z,34.03
2023-02-11T13:18:19.128Z,27.07
2023-02-11T13:21:20.645Z,26.48
2023-02-11T13:24:06.940Z,26.45
2023-02-11T13:26:40.579Z,27.13
2023-02-11T13:29:17.642Z,28.15
2023-02-11T13:31:54.399Z,28.45
2023-02-11T13:34:26.982Z,28.65
2023-02-11T13:36:55.736Z,29.10
2023-02-11T13:39:23.894Z,28.52
2023-02-11T13:41:52.924Z,29.40
2023-02-11T13:44:22.961Z,26.77
2023-02-11T13:46:55.622Z,27.15
2023-02-11T13:49:36.833Z,26.25
2023-02-11T13:52:06.766Z,26.38
2023-02-11T13:54:36.284Z,25.83
2023-02-11T13:57:23.002Z,25.90
2023-02-11T13:59:55.342Z,24.77
2023-02-11T14:02:43.391Z,25.88
2023-02-11T14:05:39.563Z,25.15
2023-02-11T14:08:28.852Z,24.25
2023-02-11T14:11:08.410Z,23.52
2023-02-11T14:13:37.122Z,25.02
2023-02-11T14:16:13.982Z,24.15
2023-02-11T14:18:44.808Z,23.85
2023-02-11T14:21:23.949Z,24.15
2023-02-11T14:23:56.169Z,24.95
2023-02-11T14:26:29.074Z,24.38
2023-02-11T14:29:16.705Z,24.88
2023-02-11T14:31:47.423Z,23.40
2023-02-11T14:34:21.114Z,23.45
2023-02-11T14:36:58.019Z,22.13
2023-02-11T14:39:31.485Z,21.92
2023-02-11T14:42:02.587Z,22.13
2023-02-11T14:44:31.920Z,22.40
2023-02-11T14:47:00.198Z,22.30
2023-02-11T14:49:54.425Z,20.73
2023-02-11T14:52:35.881Z,20.48
2023-02-11T14:55:10.105Z,20.27
2023-02-11T14:57:38.007Z,20.40
2023-02-11T15:00:17.742Z,21.65
2023-02-11T15:02:45.795Z,20.45
2023-02-11T15:05:16.538Z,19.42
2023-02-11T15:07:45.894Z,18.42
2023-02-11T15:10:19.342Z,19.17
2023-02-11T15:15:18.198Z,17.85
2023-02-11T15:17:46.625Z,19.00
2023-02-11T15:20:18.784Z,18.45
2023-02-11T15:22:46.991Z,20.60
2023-02-11T15:25:17.298Z,21.35
2023-02-11T15:28:11.414Z,21.88
2023-02-11T15:30:39.265Z,21.88
2023-02-11T15:33:26.083Z,23.38
2023-02-11T15:35:56.793Z,21.95
2023-02-11T15:38:24.573Z,25.67
2023-02-11T15:40:57.576Z,22.65
2023-02-11T15:43:46.786Z,21.17
2023-02-11T15:46:17.543Z,21.50
2023-02-11T15:48:49.940Z,22.35
2023-02-11T15:51:22.006Z,22.48
2023-02-11T15:53:53.165Z,24.95
2023-02-11T15:56:26.832Z,23.65
2023-02-11T15:58:56.220Z,24.23
2023-02-11T16:01:34.661Z,24.92
2023-02-11T16:04:03.064Z,24.55
2023-02-11T16:06:42.793Z,24.02
2023-02-11T16:09:11.176Z,24.42
2023-02-11T16:11:47.926Z,27.10
2023-02-11T16:14:27.924Z,25.80
2023-02-11T16:17:02.721Z,25.73
2023-02-11T16:19:36.180Z,26.73
2023-02-11T16:22:08.562Z,26.83
2023-02-11T16:24:37.119Z,26.90
2023-02-11T16:27:05.987Z,26.67
2023-02-11T16:29:38.186Z,26.35
2023-02-11T16:32:08.504Z,28.20
2023-02-11T16:34:39.677Z,27.75
2023-02-11T16:37:08.006Z,27.75
2023-02-11T16:39:35.872Z,29.02
2023-02-11T16:42:06.438Z,28.48
2023-02-11T16:44:35.832Z,34.83
2023-02-11T16:47:08.270Z,35.35
2023-02-11T16:49:41.718Z,40.27
2023-02-11T16:52:13.258Z,39.65
2023-02-11T16:54:41.048Z,42.03
2023-02-11T16:57:16.271Z,40.97
2023-02-11T16:59:44.704Z,39.85
2023-02-11T17:02:16.308Z,35.95
2023-02-11T17:04:45.914Z,37.60
2023-02-11T17:07:15.214Z,36.15
2023-02-11T17:09:43.051Z,38.60
2023-02-11T17:12:11.755Z,35.42
2023-02-11T17:14:39.678Z,36.92
2023-02-11T17:17:08.061Z,38.30
2023-02-11T17:22:20.540Z,39.05
2023-02-11T17:24:48.358Z,35.78
2023-02-11T17:27:19.329Z,36.47
2023-02-11T17:29:47.130Z,36.58
2023-02-11T17:32:15.118Z,35.50
2023-02-11T17:34:44.096Z,34.92
2023-02-11T17:37:11.947Z,38.30
2023-02-11T17:39:40.362Z,37.70
2023-02-11T17:42:08.840Z,36.38
2023-02-11T17:44:37.989Z,34.42
2023-02-11T17:47:12.676Z,36.13
2023-02-11T17:49:40.604Z,34.17
2023-02-11T17:52:08.592Z,38.53
2023-02-11T17:54:36.422Z,35.33
2023-02-11T17:57:04.306Z,37.42
2023-02-11T17:59:35.465Z,36.25
2023-02-11T18:02:07.958Z,36.05
2023-02-11T18:04:37.639Z,37.67
2023-02-11T18:07:14.247Z,37.97
2023-02-11T18:09:45.169Z,37.53
2023-02-11T18:12:15.778Z,35.65
2023-02-11T18:14:44.382Z,37.50
2023-02-11T18:17:12.286Z,36.25
2023-02-11T18:19:40.154Z,36.38
2023-02-11T18:22:08.213Z,36.63
2023-02-11T18:24:36.965Z,38.42
2023-02-11T18:27:05.762Z,38.78
2023-02-11T18:29:33.755Z,38.20
2023-02-11T18:32:02.019Z,38.78
2023-02-11T18:34:31.673Z,40.70
2023-02-11T18:37:00.679Z,39.90
2023-02-11T18:39:28.493Z,40.65
2023-02-11T18:41:58.931Z,40.03
2023-02-11T18:44:27.825Z,39.28
2023-02-11T18:46:55.777Z,39.63
2023-02-11T18:49:23.583Z,39.53
2023-02-11T18:51:51.437Z,40.78
2023-02-11T18:54:19.615Z,39.92
2023-02-11T18:56:47.459Z,41.10
2023-02-11T18:59:15.257Z,40.75
2023-02-11T19:01:46.712Z,40.25
2023-02-11T19:04:19.753Z,39.28
2023-02-11T19:06:48.491Z,36.17
2023-02-11T19:09:17.750Z,39.17
2023-02-11T19:11:52.266Z,40.20
2023-02-11T19:14:24.016Z,39.05
2023-02-11T19:16:53.204Z,39.03
2023-02-11T19:19:23.273Z,39.33
2023-02-11T19:21:51.265Z,38.75
2023-02-11T19:24:19.929Z,38.53
2023-02-11T19:26:48.459Z,39.00
2023-02-11T19:29:16.587Z,36.50
2023-02-11T19:31:44.981Z,38.35
2023-02-11T19:34:14.135Z,36.40
2023-02-11T19:36:42.195Z,37.80
2023-02-11T19:39:10.108Z,38.33
2023-02-11T19:41:37.999Z,39.25
2023-02-11T19:44:06.535Z,38.17
2023-02-11T19:46:36.321Z,38.33
2023-02-11T19:49:04.673Z,42.75
2023-02-11T19:51:39.109Z,39.78
2023-02-11T19:54:07.399Z,38.45
2023-02-11T19:56:35.282Z,41.20
2023-02-11T19:59:08.886Z,41.22
2023-02-11T20:01:37.142Z,41.20
2023-02-11T20:04:05.125Z,41.10
2023-02-11T20:06:34.206Z,42.78
2023-02-11T20:09:04.268Z,39.53
2023-02-11T20:11:32.824Z,40.95
2023-02-11T20:14:01.035Z,41.75
2023-02-11T20:16:46.132Z,40.08
2023-02-11T20:19:18.155Z,39.33
2023-02-11T20:21:47.722Z,40.33
2023-02-11T20:24:16.652Z,41.25
2023-02-11T20:26:45.819Z,39.45
2023-02-11T20:29:17.850Z,38.53
2023-02-11T20:31:45.906Z,37.70
2023-02-11T20:34:13.783Z,40.55
2023-02-11T20:36:42.050Z,37.13
2023-02-11T20:39:11.540Z,37.85
2023-02-11T20:41:40.020Z,38.65
2023-02-11T20:44:09.046Z,40.38
2023-02-11T20:46:38.179Z,38.08
2023-02-11T20:49:06.353Z,38.45
2023-02-11T20:51:36.620Z,39.45
2023-02-11T20:54:06.102Z,38.78
2023-02-11T20:56:35.919Z,38.42
2023-02-11T20:59:04.547Z,37.80
2023-02-11T21:01:34.170Z,39.28
2023-02-11T21:04:03.304Z,37.80
2023-02-11T21:06:37.938Z,38.72
2023-02-11T21:09:07.030Z,38.25
2023-02-11T21:11:35.123Z,40.08
2023-02-11T21:14:03.282Z,39.20
2023-02-11T21:16:31.956Z,37.72
2023-02-11T21:19:00.662Z,38.53
2023-02-11T21:21:28.513Z,40.28
2023-02-11T21:23:56.320Z,37.88
2023-02-11T21:26:24.160Z,38.60
2023-02-11T21:28:52.222Z,39.33
2023-02-11T21:31:24.360Z,39.35
2023-02-11T21:33:54.508Z,37.50
2023-02-11T21:36:23.057Z,37.22
2023-02-11T21:38:51.171Z,34.22
2023-02-11T21:41:21.228Z,38.20
2023-02-11T21:43:49.325Z,35.33
2023-02-11T21:46:18.282Z,37.28
2023-02-11T21:48:46.258Z,36.20
2023-02-11T21:51:15.340Z,36.72
2023-02-11T21:53:43.296Z,36.58
2023-02-11T21:56:12.039Z,34.90
2023-02-11T21:58:39.885Z,33.90
2023-02-11T22:01:11.753Z,34.28
2023-02-11T22:03:39.736Z,34.72
2023-02-11T22:06:09.103Z,32.72
2023-02-11T22:08:37.240Z,36.88
2023-02-11T22:11:06.107Z,33.25
2023-02-11T22:13:34.502Z,33.10
2023-02-11T22:16:03.776Z,31.00
2023-02-11T22:18:31.599Z,31.42
2023-02-11T22:21:03.859Z,34.35
2023-02-11T22:23:32.100Z,32.92
2023-02-11T22:26:03.450Z,34.15
2023-02-11T22:28:31.321Z,32.78
2023-02-11T22:30:59.504Z,31.73
2023-02-11T22:33:28.182Z,33.13
2023-02-11T22:36:02.446Z,33.92
2023-02-11T22:38:31.233Z,33.65
2023-02-11T22:40:59.666Z,34.88
2023-02-11T22:43:28.378Z,35.90
2023-02-11T22:45:56.810Z,35.05
2023-02-11T22:48:24.882Z,33.30
2023-02-11T22:50:52.675Z,34.80
2023-02-11T22:53:20.527Z,34.28
2023-02-11T22:55:48.388Z,32.67
2023-02-11T22:58:16.399Z,33.83
2023-02-11T23:00:44.227Z,33.35
2023-02-11T23:03:13.478Z,34.72
2023-02-11T23:05:41.859Z,34.10
2023-02-11T23:08:10.958Z,34.63
2023-02-11T23:10:39.565Z,32.80
2023-02-11T23:13:08.188Z,33.65
2023-02-11T23:15:39.210Z,32.65
2023-02-11T23:18:07.528Z,33.45
2023-02-11T23:20:39.112Z,34.38
2023-02-11T23:23:09.526Z,33.13
2023-02-11T23:25:42.316Z,32.17
2023-02-11T23:28:10.581Z,33.47
2023-02-11T23:30:38.721Z,31.20
2023-02-11T23:33:06.572Z,33.47
2023-02-11T23:35:35.877Z,33.47
2023-02-11T23:38:03.730Z,31.75
2023-02-11T23:40:31.566Z,32.13
2023-02-11T23:42:59.357Z,31.30
2023-02-11T23:45:27.191Z,30.70
2023-02-11T23:47:55.040Z,31.27
2023-02-11T23:50:35.795Z,31.10
2023-02-11T23:53:03.723Z,32.17
2023-02-11T23:55:31.489Z,32.63
2023-02-11T23:57:59.257Z,31.90
